sensor_id;sensor_type;location;lat;lon;timestamp;temperature;humidity
569;DHT22;269;48.884;9.192;2022-10-03T00:02:01;12.30;99.90
569;DHT22;269;48.884;9.192;2022-10-03T00:04:51;12.30;99.90
569;DHT22;269;48.884;9.192;2022-10-03T00:07:35;12.20;99.90
569;DHT22;269;48.884;9.192;2022-10-03T00:10:15;12.20;99.90
569;DHT22;269;48.884;9.192;2022-10-03T00:13:04;12.20;99.90
569;DHT22;269;48.884;9.192;2022-10-03T00:15:38;12.20;99.90
569;DHT22;269;48.884;9.192;2022-10-03T00:18:17;12.20;99.90
569;DHT22;269;48.884;9.192;2022-10-03T00:20:52;12.20;99.90
569;DHT22;269;48.884;9.192;2022-10-03T00:23:33;12.20;99.90
569;DHT22;269;48.884;9.192;2022-10-03T00:26:05;12.20;99.90
569;DHT22;269;48.884;9.192;2022-10-03T00:29:17;12.20;99.90
569;DHT22;269;48.884;9.192;2022-10-03T00:31:55;12.20;99.90
569;DHT22;269;48.884;9.192;2022-10-03T00:34:36;12.20;99.90
569;DHT22;269;48.884;9.192;2022-10-03T00:37:17;12.20;99.90
569;DHT22;269;48.884;9.192;2022-10-03T00:39:55;12.20;99.90
569;DHT22;269;48.884;9.192;2022-10-03T00:43:02;12.20;99.90
569;DHT22;269;48.884;9.192;2022-10-03T00:46:00;12.30;99.90
569;DHT22;269;48.884;9.192;2022-10-03T00:51:44;12.30;99.90
569;DHT22;269;48.884;9.192;2022-10-03T00:54:37;12.30;99.90
569;DHT22;269;48.884;9.192;2022-10-03T00:57:27;12.30;99.90
569;DHT22;269;48.884;9.192;2022-10-03T01:00:12;12.30;99.90
569;DHT22;269;48.884;9.192;2022-10-03T01:02:46;12.40;99.90
569;DHT22;269;48.884;9.192;2022-10-03T01:05:25;12.40;99.90
569;DHT22;269;48.884;9.192;2022-10-03T01:08:18;12.40;99.90
569;DHT22;269;48.884;9.192;2022-10-03T01:10:56;12.50;99.90
569;DHT22;269;48.884;9.192;2022-10-03T01:13:33;12.40;99.90
569;DHT22;269;48.884;9.192;2022-10-03T01:16:12;12.40;99.90
569;DHT22;269;48.884;9.192;2022-10-03T01:18:50;12.50;99.90
569;DHT22;269;48.884;9.192;2022-10-03T01:21:30;12.40;99.90
569;DHT22;269;48.884;9.192;2022-10-03T01:26:56;12.50;99.90
569;DHT22;269;48.884;9.192;2022-10-03T01:29:37;12.50;99.90
569;DHT22;269;48.884;9.192;2022-10-03T01:32:27;12.50;99.90
569;DHT22;269;48.884;9.192;2022-10-03T01:35:01;12.40;99.90
569;DHT22;269;48.884;9.192;2022-10-03T01:37:39;12.40;99.90
569;DHT22;269;48.884;9.192;2022-10-03T01:40:16;12.40;99.90
569;DHT22;269;48.884;9.192;2022-10-03T01:42:58;12.50;99.90
569;DHT22;269;48.884;9.192;2022-10-03T01:45:36;12.50;99.90
569;DHT22;269;48.884;9.192;2022-10-03T01:48:13;12.50;99.90
569;DHT22;269;48.884;9.192;2022-10-03T01:50:50;12.50;99.90
569;DHT22;269;48.884;9.192;2022-10-03T01:53:28;12.50;99.90
569;DHT22;269;48.884;9.192;2022-10-03T01:56:04;12.50;99.90
569;DHT22;269;48.884;9.192;2022-10-03T01:58:44;12.50;99.90
569;DHT22;269;48.884;9.192;2022-10-03T02:01:23;12.50;99.90
569;DHT22;269;48.884;9.192;2022-10-03T02:03:58;12.50;99.90
569;DHT22;269;48.884;9.192;2022-10-03T02:06:38;12.50;99.90
569;DHT22;269;48.884;9.192;2022-10-03T02:09:17;12.40;99.90
569;DHT22;269;48.884;9.192;2022-10-03T02:11:57;12.40;99.90
569;DHT22;269;48.884;9.192;2022-10-03T02:14:31;12.40;99.90
569;DHT22;269;48.884;9.192;2022-10-03T02:17:04;12.40;99.90
569;DHT22;269;48.884;9.192;2022-10-03T02:19:40;12.40;99.90
569;DHT22;269;48.884;9.192;2022-10-03T02:22:28;12.30;99.90
569;DHT22;269;48.884;9.192;2022-10-03T02:25:08;12.30;99.90
569;DHT22;269;48.884;9.192;2022-10-03T02:30:45;12.30;99.90
569;DHT22;269;48.884;9.192;2022-10-03T02:33:51;12.30;99.90
569;DHT22;269;48.884;9.192;2022-10-03T02:36:36;12.30;99.90
569;DHT22;269;48.884;9.192;2022-10-03T02:42:47;12.30;99.90
569;DHT22;269;48.884;9.192;2022-10-03T02:48:55;12.20;99.90
569;DHT22;269;48.884;9.192;2022-10-03T02:51:39;12.20;99.90
569;DHT22;269;48.884;9.192;2022-10-03T02:54:44;12.20;99.90
569;DHT22;269;48.884;9.192;2022-10-03T03:00:21;12.10;99.90
569;DHT22;269;48.884;9.192;2022-10-03T03:06:10;12.10;99.90
569;DHT22;269;48.884;9.192;2022-10-03T03:08:54;12.10;99.90
569;DHT22;269;48.884;9.192;2022-10-03T03:17:45;12.10;99.90
569;DHT22;269;48.884;9.192;2022-10-03T03:20:24;12.10;99.90
569;DHT22;269;48.884;9.192;2022-10-03T03:23:21;12.00;99.90
569;DHT22;269;48.884;9.192;2022-10-03T03:26:10;12.10;99.90
569;DHT22;269;48.884;9.192;2022-10-03T03:28:45;12.10;99.90
569;DHT22;269;48.884;9.192;2022-10-03T03:31:18;12.10;99.90
569;DHT22;269;48.884;9.192;2022-10-03T03:33:54;12.10;99.90
569;DHT22;269;48.884;9.192;2022-10-03T03:36:29;12.20;99.90
569;DHT22;269;48.884;9.192;2022-10-03T03:39:09;12.20;99.90
569;DHT22;269;48.884;9.192;2022-10-03T03:42:00;12.20;99.90
569;DHT22;269;48.884;9.192;2022-10-03T03:44:53;12.20;99.90
569;DHT22;269;48.884;9.192;2022-10-03T03:47:40;12.20;99.90
569;DHT22;269;48.884;9.192;2022-10-03T03:50:24;12.30;99.90
569;DHT22;269;48.884;9.192;2022-10-03T03:53:12;12.30;99.90
569;DHT22;269;48.884;9.192;2022-10-03T03:55:57;12.20;99.90
569;DHT22;269;48.884;9.192;2022-10-03T03:58:35;12.20;99.90
569;DHT22;269;48.884;9.192;2022-10-03T04:01:27;12.30;99.90
569;DHT22;269;48.884;9.192;2022-10-03T04:04:07;12.30;99.90
569;DHT22;269;48.884;9.192;2022-10-03T04:06:46;12.30;99.90
569;DHT22;269;48.884;9.192;2022-10-03T04:12:41;12.40;99.90
569;DHT22;269;48.884;9.192;2022-10-03T04:15:28;12.40;99.90
569;DHT22;269;48.884;9.192;2022-10-03T04:18:06;12.40;99.90
569;DHT22;269;48.884;9.192;2022-10-03T04:21:13;12.40;99.90
569;DHT22;269;48.884;9.192;2022-10-03T04:26:57;12.40;99.90
569;DHT22;269;48.884;9.192;2022-10-03T04:29:38;12.30;99.90
569;DHT22;269;48.884;9.192;2022-10-03T04:32:21;12.30;99.90
569;DHT22;269;48.884;9.192;2022-10-03T04:35:09;12.30;99.90
569;DHT22;269;48.884;9.192;2022-10-03T04:37:41;12.30;99.90
569;DHT22;269;48.884;9.192;2022-10-03T04:40:24;12.40;99.90
569;DHT22;269;48.884;9.192;2022-10-03T04:43:03;12.40;99.90
569;DHT22;269;48.884;9.192;2022-10-03T04:45:40;12.40;99.90
569;DHT22;269;48.884;9.192;2022-10-03T04:48:15;12.40;99.90
569;DHT22;269;48.884;9.192;2022-10-03T04:50:52;12.40;99.90
569;DHT22;269;48.884;9.192;2022-10-03T04:53:33;12.40;99.90
569;DHT22;269;48.884;9.192;2022-10-03T04:56:21;12.40;99.90
569;DHT22;269;48.884;9.192;2022-10-03T04:58:55;12.30;99.90
569;DHT22;269;48.884;9.192;2022-10-03T05:01:39;12.40;99.90
569;DHT22;269;48.884;9.192;2022-10-03T05:04:20;12.30;99.90
569;DHT22;269;48.884;9.192;2022-10-03T05:06:57;12.30;99.90
569;DHT22;269;48.884;9.192;2022-10-03T05:09:31;12.20;99.90
569;DHT22;269;48.884;9.192;2022-10-03T05:12:06;12.20;99.90
569;DHT22;269;48.884;9.192;2022-10-03T05:14:50;12.20;99.90
569;DHT22;269;48.884;9.192;2022-10-03T05:17:23;12.20;99.90
569;DHT22;269;48.884;9.192;2022-10-03T05:20:20;12.20;99.90
569;DHT22;269;48.884;9.192;2022-10-03T05:22:53;12.20;99.90
569;DHT22;269;48.884;9.192;2022-10-03T05:25:31;12.20;99.90
569;DHT22;269;48.884;9.192;2022-10-03T05:28:06;12.20;99.90
569;DHT22;269;48.884;9.192;2022-10-03T05:30:43;12.10;99.90
569;DHT22;269;48.884;9.192;2022-10-03T05:33:24;12.10;99.90
569;DHT22;269;48.884;9.192;2022-10-03T05:36:06;12.10;99.90
569;DHT22;269;48.884;9.192;2022-10-03T05:41:34;12.00;99.90
569;DHT22;269;48.884;9.192;2022-10-03T05:44:06;12.00;99.90
569;DHT22;269;48.884;9.192;2022-10-03T05:46:46;12.00;99.90
569;DHT22;269;48.884;9.192;2022-10-03T05:49:40;12.10;99.90
569;DHT22;269;48.884;9.192;2022-10-03T05:52:27;12.00;99.90
569;DHT22;269;48.884;9.192;2022-10-03T05:55:09;12.00;99.90
569;DHT22;269;48.884;9.192;2022-10-03T05:58:17;12.00;99.90
569;DHT22;269;48.884;9.192;2022-10-03T06:01:19;12.00;99.90
569;DHT22;269;48.884;9.192;2022-10-03T06:04:19;12.00;99.90
569;DHT22;269;48.884;9.192;2022-10-03T06:07:03;12.00;99.90
569;DHT22;269;48.884;9.192;2022-10-03T06:09:49;12.00;99.90
569;DHT22;269;48.884;9.192;2022-10-03T06:12:28;12.00;99.90
569;DHT22;269;48.884;9.192;2022-10-03T06:18:23;12.00;99.90
569;DHT22;269;48.884;9.192;2022-10-03T06:21:23;12.00;99.90
569;DHT22;269;48.884;9.192;2022-10-03T06:24:17;12.00;99.90
569;DHT22;269;48.884;9.192;2022-10-03T06:27:08;11.90;99.90
569;DHT22;269;48.884;9.192;2022-10-03T06:30:10;11.70;99.90
569;DHT22;269;48.884;9.192;2022-10-03T06:33:26;12.00;99.90
569;DHT22;269;48.884;9.192;2022-10-03T06:36:35;12.30;99.90
569;DHT22;269;48.884;9.192;2022-10-03T06:39:45;12.50;99.90
569;DHT22;269;48.884;9.192;2022-10-03T06:42:34;12.70;99.90
569;DHT22;269;48.884;9.192;2022-10-03T06:48:30;12.80;99.90
569;DHT22;269;48.884;9.192;2022-10-03T06:51:21;12.70;99.90
569;DHT22;269;48.884;9.192;2022-10-03T06:54:12;12.70;99.90
569;DHT22;269;48.884;9.192;2022-10-03T06:57:09;12.70;99.90
569;DHT22;269;48.884;9.192;2022-10-03T07:02:39;12.80;99.90
569;DHT22;269;48.884;9.192;2022-10-03T07:08:38;13.00;99.90
569;DHT22;269;48.884;9.192;2022-10-03T07:11:39;13.10;99.90
569;DHT22;269;48.884;9.192;2022-10-03T07:17:39;13.30;99.90
569;DHT22;269;48.884;9.192;2022-10-03T07:23:26;13.20;99.90
569;DHT22;269;48.884;9.192;2022-10-03T07:29:14;13.30;99.90
569;DHT22;269;48.884;9.192;2022-10-03T07:32:10;13.30;99.90
569;DHT22;269;48.884;9.192;2022-10-03T07:35:11;13.20;99.90
569;DHT22;269;48.884;9.192;2022-10-03T07:38:00;13.30;99.90
569;DHT22;269;48.884;9.192;2022-10-03T07:41:19;13.20;99.90
569;DHT22;269;48.884;9.192;2022-10-03T07:44:05;13.20;99.90
569;DHT22;269;48.884;9.192;2022-10-03T07:47:03;13.30;99.90
569;DHT22;269;48.884;9.192;2022-10-03T07:50:02;13.30;99.90
569;DHT22;269;48.884;9.192;2022-10-03T07:53:01;13.40;99.90
569;DHT22;269;48.884;9.192;2022-10-03T07:55:55;13.50;99.90
569;DHT22;269;48.884;9.192;2022-10-03T08:01:46;13.60;99.90
569;DHT22;269;48.884;9.192;2022-10-03T08:04:46;13.50;99.90
569;DHT22;269;48.884;9.192;2022-10-03T08:07:32;13.50;99.90
569;DHT22;269;48.884;9.192;2022-10-03T08:10:48;13.40;99.90
569;DHT22;269;48.884;9.192;2022-10-03T08:13:30;13.40;99.90
569;DHT22;269;48.884;9.192;2022-10-03T08:16:14;13.40;99.90
569;DHT22;269;48.884;9.192;2022-10-03T08:19:11;13.30;99.90
569;DHT22;269;48.884;9.192;2022-10-03T08:21:52;13.30;99.90
569;DHT22;269;48.884;9.192;2022-10-03T08:24:48;13.30;99.90
569;DHT22;269;48.884;9.192;2022-10-03T08:27:39;13.40;99.90
569;DHT22;269;48.884;9.192;2022-10-03T08:30:19;13.40;99.90
569;DHT22;269;48.884;9.192;2022-10-03T08:32:57;13.50;99.90
569;DHT22;269;48.884;9.192;2022-10-03T08:36:01;13.60;99.90
569;DHT22;269;48.884;9.192;2022-10-03T08:38:47;13.50;99.90
569;DHT22;269;48.884;9.192;2022-10-03T08:41:38;13.70;99.90
569;DHT22;269;48.884;9.192;2022-10-03T08:44:41;13.70;99.90
569;DHT22;269;48.884;9.192;2022-10-03T08:53:54;14.00;99.90
569;DHT22;269;48.884;9.192;2022-10-03T08:56:34;14.10;99.90
569;DHT22;269;48.884;9.192;2022-10-03T09:02:54;14.10;99.90
569;DHT22;269;48.884;9.192;2022-10-03T09:09:09;14.20;99.90
569;DHT22;269;48.884;9.192;2022-10-03T09:12:16;14.30;99.90
569;DHT22;269;48.884;9.192;2022-10-03T09:15:07;14.30;99.90
569;DHT22;269;48.884;9.192;2022-10-03T09:17:57;14.20;99.90
569;DHT22;269;48.884;9.192;2022-10-03T09:20:48;14.20;99.90
569;DHT22;269;48.884;9.192;2022-10-03T09:23:42;14.20;99.90
569;DHT22;269;48.884;9.192;2022-10-03T09:26:41;14.30;99.90
569;DHT22;269;48.884;9.192;2022-10-03T09:29:43;14.30;99.90
569;DHT22;269;48.884;9.192;2022-10-03T09:32:30;14.40;99.90
569;DHT22;269;48.884;9.192;2022-10-03T09:35:31;14.40;99.90
569;DHT22;269;48.884;9.192;2022-10-03T09:38:47;14.30;99.90
569;DHT22;269;48.884;9.192;2022-10-03T09:41:41;14.20;99.90
569;DHT22;269;48.884;9.192;2022-10-03T09:44:26;14.10;99.90
569;DHT22;269;48.884;9.192;2022-10-03T09:47:34;14.00;99.90
569;DHT22;269;48.884;9.192;2022-10-03T09:50:33;13.90;99.90
569;DHT22;269;48.884;9.192;2022-10-03T09:53:30;14.00;99.90
569;DHT22;269;48.884;9.192;2022-10-03T09:56:30;13.90;99.90
569;DHT22;269;48.884;9.192;2022-10-03T09:59:24;13.80;99.90
569;DHT22;269;48.884;9.192;2022-10-03T10:02:08;13.80;99.90
569;DHT22;269;48.884;9.192;2022-10-03T10:04:53;14.00;99.90
569;DHT22;269;48.884;9.192;2022-10-03T10:07:45;14.20;99.90
569;DHT22;269;48.884;9.192;2022-10-03T10:19:58;14.90;99.90
569;DHT22;269;48.884;9.192;2022-10-03T10:25:55;15.00;99.90
569;DHT22;269;48.884;9.192;2022-10-03T10:28:52;15.00;99.90
569;DHT22;269;48.884;9.192;2022-10-03T10:31:53;15.00;99.90
569;DHT22;269;48.884;9.192;2022-10-03T10:35:10;15.00;99.90
569;DHT22;269;48.884;9.192;2022-10-03T10:38:21;15.00;99.90
569;DHT22;269;48.884;9.192;2022-10-03T10:44:22;15.10;99.90
569;DHT22;269;48.884;9.192;2022-10-03T10:47:10;15.20;99.90
569;DHT22;269;48.884;9.192;2022-10-03T10:56:20;15.90;99.90
569;DHT22;269;48.884;9.192;2022-10-03T11:02:45;17.30;99.90
569;DHT22;269;48.884;9.192;2022-10-03T11:12:01;20.20;99.90
569;DHT22;269;48.884;9.192;2022-10-03T11:15:04;21.10;99.90
569;DHT22;269;48.884;9.192;2022-10-03T11:17:58;21.80;99.90
569;DHT22;269;48.884;9.192;2022-10-03T11:23:56;23.00;99.90
569;DHT22;269;48.884;9.192;2022-10-03T11:30:02;22.90;99.90
569;DHT22;269;48.884;9.192;2022-10-03T11:33:11;23.10;99.90
569;DHT22;269;48.884;9.192;2022-10-03T11:36:07;22.90;99.90
569;DHT22;269;48.884;9.192;2022-10-03T11:38:50;22.20;99.90
569;DHT22;269;48.884;9.192;2022-10-03T11:41:29;21.70;99.90
569;DHT22;269;48.884;9.192;2022-10-03T11:44:16;21.10;99.90
569;DHT22;269;48.884;9.192;2022-10-03T11:46:57;20.70;99.90
569;DHT22;269;48.884;9.192;2022-10-03T11:50:04;20.70;99.90
569;DHT22;269;48.884;9.192;2022-10-03T11:52:48;21.10;99.90
569;DHT22;269;48.884;9.192;2022-10-03T11:55:26;21.80;99.90
569;DHT22;269;48.884;9.192;2022-10-03T11:58:07;22.40;99.90
569;DHT22;269;48.884;9.192;2022-10-03T12:00:41;23.10;99.90
569;DHT22;269;48.884;9.192;2022-10-03T12:03:16;23.40;99.70
569;DHT22;269;48.884;9.192;2022-10-03T12:05:53;23.60;96.80
569;DHT22;269;48.884;9.192;2022-10-03T12:08:52;22.80;98.80
569;DHT22;269;48.884;9.192;2022-10-03T12:11:26;22.30;98.10
569;DHT22;269;48.884;9.192;2022-10-03T12:14:12;21.80;99.50
569;DHT22;269;48.884;9.192;2022-10-03T12:16:54;21.30;99.90
569;DHT22;269;48.884;9.192;2022-10-03T12:19:29;20.70;99.90
569;DHT22;269;48.884;9.192;2022-10-03T12:22:04;20.20;99.90
569;DHT22;269;48.884;9.192;2022-10-03T12:24:36;19.80;99.90
569;DHT22;269;48.884;9.192;2022-10-03T12:27:15;19.60;99.90
569;DHT22;269;48.884;9.192;2022-10-03T12:29:53;19.30;99.90
569;DHT22;269;48.884;9.192;2022-10-03T12:32:33;19.10;99.90
569;DHT22;269;48.884;9.192;2022-10-03T12:35:14;19.00;99.90
569;DHT22;269;48.884;9.192;2022-10-03T12:38:05;18.90;99.90
569;DHT22;269;48.884;9.192;2022-10-03T12:40:38;18.80;99.90
569;DHT22;269;48.884;9.192;2022-10-03T12:43:20;18.70;99.90
569;DHT22;269;48.884;9.192;2022-10-03T12:45:53;18.60;99.90
569;DHT22;269;48.884;9.192;2022-10-03T12:48:37;18.50;99.90
569;DHT22;269;48.884;9.192;2022-10-03T12:51:17;19.00;99.90
569;DHT22;269;48.884;9.192;2022-10-03T12:53:58;19.80;99.90
569;DHT22;269;48.884;9.192;2022-10-03T12:56:38;20.70;99.90
569;DHT22;269;48.884;9.192;2022-10-03T12:59:14;21.50;99.90
569;DHT22;269;48.884;9.192;2022-10-03T13:01:58;21.90;99.90
569;DHT22;269;48.884;9.192;2022-10-03T13:04:36;22.10;99.90
569;DHT22;269;48.884;9.192;2022-10-03T13:07:18;22.00;99.90
569;DHT22;269;48.884;9.192;2022-10-03T13:10:00;21.90;99.70
569;DHT22;269;48.884;9.192;2022-10-03T13:12:39;21.80;99.00
569;DHT22;269;48.884;9.192;2022-10-03T13:15:42;21.70;98.90
569;DHT22;269;48.884;9.192;2022-10-03T13:18:31;22.00;97.30
569;DHT22;269;48.884;9.192;2022-10-03T13:21:04;22.20;96.20
569;DHT22;269;48.884;9.192;2022-10-03T13:23:41;22.60;95.30
569;DHT22;269;48.884;9.192;2022-10-03T13:26:17;22.70;96.00
569;DHT22;269;48.884;9.192;2022-10-03T13:29:04;22.90;95.70
569;DHT22;269;48.884;9.192;2022-10-03T13:32:05;23.00;94.80
569;DHT22;269;48.884;9.192;2022-10-03T13:34:43;22.90;94.90
569;DHT22;269;48.884;9.192;2022-10-03T13:37:14;22.80;95.70
569;DHT22;269;48.884;9.192;2022-10-03T13:39:47;22.90;95.60
569;DHT22;269;48.884;9.192;2022-10-03T13:42:19;23.10;94.10
569;DHT22;269;48.884;9.192;2022-10-03T13:44:50;23.10;95.00
569;DHT22;269;48.884;9.192;2022-10-03T13:47:33;23.50;94.40
569;DHT22;269;48.884;9.192;2022-10-03T13:50:03;23.90;92.90
569;DHT22;269;48.884;9.192;2022-10-03T13:52:38;24.10;91.40
569;DHT22;269;48.884;9.192;2022-10-03T13:55:19;23.90;90.70
569;DHT22;269;48.884;9.192;2022-10-03T13:58:03;23.70;91.10
569;DHT22;269;48.884;9.192;2022-10-03T14:00:48;23.60;91.60
569;DHT22;269;48.884;9.192;2022-10-03T14:03:23;23.30;91.60
569;DHT22;269;48.884;9.192;2022-10-03T14:06:02;23.00;91.70
569;DHT22;269;48.884;9.192;2022-10-03T14:08:50;22.60;92.50
569;DHT22;269;48.884;9.192;2022-10-03T14:11:25;22.80;92.70
569;DHT22;269;48.884;9.192;2022-10-03T14:14:17;22.90;93.00
569;DHT22;269;48.884;9.192;2022-10-03T14:16:53;23.30;93.40
569;DHT22;269;48.884;9.192;2022-10-03T14:19:32;23.60;92.10
569;DHT22;269;48.884;9.192;2022-10-03T14:22:16;23.80;92.00
569;DHT22;269;48.884;9.192;2022-10-03T14:24:58;24.00;92.00
569;DHT22;269;48.884;9.192;2022-10-03T14:27:43;24.60;91.40
569;DHT22;269;48.884;9.192;2022-10-03T14:30:15;25.00;89.20
569;DHT22;269;48.884;9.192;2022-10-03T14:32:49;25.00;88.80
569;DHT22;269;48.884;9.192;2022-10-03T14:35:28;25.10;87.70
569;DHT22;269;48.884;9.192;2022-10-03T14:38:14;25.20;84.60
569;DHT22;269;48.884;9.192;2022-10-03T14:40:47;25.30;86.40
569;DHT22;269;48.884;9.192;2022-10-03T14:43:32;25.70;85.90
569;DHT22;269;48.884;9.192;2022-10-03T14:46:04;25.80;82.50
569;DHT22;269;48.884;9.192;2022-10-03T14:48:35;25.70;81.20
569;DHT22;269;48.884;9.192;2022-10-03T14:51:09;25.50;81.80
569;DHT22;269;48.884;9.192;2022-10-03T14:53:46;25.80;82.70
569;DHT22;269;48.884;9.192;2022-10-03T14:56:14;26.20;83.30
569;DHT22;269;48.884;9.192;2022-10-03T14:58:48;26.60;83.10
569;DHT22;269;48.884;9.192;2022-10-03T15:01:19;27.20;81.00
569;DHT22;269;48.884;9.192;2022-10-03T15:03:54;27.00;80.70
569;DHT22;269;48.884;9.192;2022-10-03T15:06:50;26.70;80.30
569;DHT22;269;48.884;9.192;2022-10-03T15:09:23;26.60;80.30
569;DHT22;269;48.884;9.192;2022-10-03T15:11:54;26.70;80.80
569;DHT22;269;48.884;9.192;2022-10-03T15:14:27;26.90;80.00
569;DHT22;269;48.884;9.192;2022-10-03T15:16:57;26.90;80.40
569;DHT22;269;48.884;9.192;2022-10-03T15:19:31;26.90;80.40
569;DHT22;269;48.884;9.192;2022-10-03T15:22:10;27.10;78.50
569;DHT22;269;48.884;9.192;2022-10-03T15:24:39;27.30;78.40
569;DHT22;269;48.884;9.192;2022-10-03T15:27:10;27.50;78.50
569;DHT22;269;48.884;9.192;2022-10-03T15:29:39;27.60;76.90
569;DHT22;269;48.884;9.192;2022-10-03T15:32:18;27.30;75.90
569;DHT22;269;48.884;9.192;2022-10-03T15:34:48;26.90;76.40
569;DHT22;269;48.884;9.192;2022-10-03T15:37:17;26.40;77.70
569;DHT22;269;48.884;9.192;2022-10-03T15:39:47;25.90;78.60
569;DHT22;269;48.884;9.192;2022-10-03T15:42:21;25.40;78.50
569;DHT22;269;48.884;9.192;2022-10-03T15:44:53;24.70;80.00
569;DHT22;269;48.884;9.192;2022-10-03T15:47:22;24.30;81.70
569;DHT22;269;48.884;9.192;2022-10-03T15:49:52;23.80;84.10
569;DHT22;269;48.884;9.192;2022-10-03T15:52:24;23.50;84.50
569;DHT22;269;48.884;9.192;2022-10-03T15:54:58;22.90;84.70
569;DHT22;269;48.884;9.192;2022-10-03T15:57:30;22.50;86.50
569;DHT22;269;48.884;9.192;2022-10-03T16:00:00;22.20;87.20
569;DHT22;269;48.884;9.192;2022-10-03T16:02:31;21.90;88.40
569;DHT22;269;48.884;9.192;2022-10-03T16:05:02;21.60;89.90
569;DHT22;269;48.884;9.192;2022-10-03T16:07:38;21.40;89.80
569;DHT22;269;48.884;9.192;2022-10-03T16:10:19;21.20;89.80
569;DHT22;269;48.884;9.192;2022-10-03T16:12:55;20.90;90.40
569;DHT22;269;48.884;9.192;2022-10-03T16:15:31;20.60;91.10
569;DHT22;269;48.884;9.192;2022-10-03T16:18:05;20.20;91.50
569;DHT22;269;48.884;9.192;2022-10-03T16:20:37;19.90;91.70
569;DHT22;269;48.884;9.192;2022-10-03T16:23:14;19.60;92.70
569;DHT22;269;48.884;9.192;2022-10-03T16:25:46;19.40;92.80
569;DHT22;269;48.884;9.192;2022-10-03T16:28:17;19.10;93.00
569;DHT22;269;48.884;9.192;2022-10-03T16:30:52;18.80;93.30
569;DHT22;269;48.884;9.192;2022-10-03T16:33:25;18.60;93.70
569;DHT22;269;48.884;9.192;2022-10-03T16:35:56;18.40;94.20
569;DHT22;269;48.884;9.192;2022-10-03T16:38:25;18.40;94.80
569;DHT22;269;48.884;9.192;2022-10-03T16:40:56;18.00;95.60
569;DHT22;269;48.884;9.192;2022-10-03T16:43:25;17.80;95.70
569;DHT22;269;48.884;9.192;2022-10-03T16:45:58;17.50;96.20
569;DHT22;269;48.884;9.192;2022-10-03T16:48:27;17.50;96.80
569;DHT22;269;48.884;9.192;2022-10-03T16:51:18;17.20;97.30
569;DHT22;269;48.884;9.192;2022-10-03T16:53:48;16.90;97.90
569;DHT22;269;48.884;9.192;2022-10-03T16:56:18;16.80;98.20
569;DHT22;269;48.884;9.192;2022-10-03T16:58:50;16.70;99.30
569;DHT22;269;48.884;9.192;2022-10-03T17:01:27;16.40;99.80
569;DHT22;269;48.884;9.192;2022-10-03T17:04:10;16.20;99.90
569;DHT22;269;48.884;9.192;2022-10-03T17:06:39;16.10;99.90
569;DHT22;269;48.884;9.192;2022-10-03T17:09:16;15.90;99.90
569;DHT22;269;48.884;9.192;2022-10-03T17:11:50;15.80;99.90
569;DHT22;269;48.884;9.192;2022-10-03T17:14:19;15.70;99.90
569;DHT22;269;48.884;9.192;2022-10-03T17:16:53;15.50;99.90
569;DHT22;269;48.884;9.192;2022-10-03T17:19:29;15.40;99.90
569;DHT22;269;48.884;9.192;2022-10-03T17:22:05;15.20;99.90
569;DHT22;269;48.884;9.192;2022-10-03T17:24:41;15.10;99.90
569;DHT22;269;48.884;9.192;2022-10-03T17:27:15;14.90;99.90
569;DHT22;269;48.884;9.192;2022-10-03T17:29:46;14.80;99.90
569;DHT22;269;48.884;9.192;2022-10-03T17:32:22;14.70;99.90
569;DHT22;269;48.884;9.192;2022-10-03T17:34:55;14.60;99.90
569;DHT22;269;48.884;9.192;2022-10-03T17:37:50;14.50;99.90
569;DHT22;269;48.884;9.192;2022-10-03T17:40:21;14.50;99.90
569;DHT22;269;48.884;9.192;2022-10-03T17:42:57;14.40;99.90
569;DHT22;269;48.884;9.192;2022-10-03T17:45:31;14.30;99.90
569;DHT22;269;48.884;9.192;2022-10-03T17:48:09;14.30;99.90
569;DHT22;269;48.884;9.192;2022-10-03T17:50:50;14.20;99.90
569;DHT22;269;48.884;9.192;2022-10-03T17:53:21;14.20;99.90
569;DHT22;269;48.884;9.192;2022-10-03T17:55:54;14.10;99.90
569;DHT22;269;48.884;9.192;2022-10-03T17:58:24;14.00;99.90
569;DHT22;269;48.884;9.192;2022-10-03T18:01:00;14.00;99.90
569;DHT22;269;48.884;9.192;2022-10-03T18:03:36;13.90;99.90
569;DHT22;269;48.884;9.192;2022-10-03T18:06:37;13.90;99.90
569;DHT22;269;48.884;9.192;2022-10-03T18:09:27;13.80;99.90
569;DHT22;269;48.884;9.192;2022-10-03T18:12:03;13.70;99.90
569;DHT22;269;48.884;9.192;2022-10-03T18:14:42;13.70;99.90
569;DHT22;269;48.884;9.192;2022-10-03T18:17:15;13.70;99.90
569;DHT22;269;48.884;9.192;2022-10-03T18:20:04;13.60;99.90
569;DHT22;269;48.884;9.192;2022-10-03T18:22:43;13.60;99.90
569;DHT22;269;48.884;9.192;2022-10-03T18:25:17;13.60;99.90
569;DHT22;269;48.884;9.192;2022-10-03T18:28:16;13.50;99.90
569;DHT22;269;48.884;9.192;2022-10-03T18:30:50;13.50;99.90
569;DHT22;269;48.884;9.192;2022-10-03T18:33:22;13.40;99.90
569;DHT22;269;48.884;9.192;2022-10-03T18:35:52;13.40;99.90
569;DHT22;269;48.884;9.192;2022-10-03T18:38:22;13.40;99.90
569;DHT22;269;48.884;9.192;2022-10-03T18:40:53;13.30;99.90
569;DHT22;269;48.884;9.192;2022-10-03T18:43:32;13.30;99.90
569;DHT22;269;48.884;9.192;2022-10-03T18:46:09;13.30;99.90
569;DHT22;269;48.884;9.192;2022-10-03T18:48:45;13.20;99.90
569;DHT22;269;48.884;9.192;2022-10-03T18:51:24;13.20;99.90
569;DHT22;269;48.884;9.192;2022-10-03T18:53:57;13.10;99.90
569;DHT22;269;48.884;9.192;2022-10-03T18:56:45;13.10;99.90
569;DHT22;269;48.884;9.192;2022-10-03T18:59:18;13.10;99.90
569;DHT22;269;48.884;9.192;2022-10-03T19:01:52;13.00;99.90
569;DHT22;269;48.884;9.192;2022-10-03T19:04:35;12.90;99.90
569;DHT22;269;48.884;9.192;2022-10-03T19:07:13;12.80;99.90
569;DHT22;269;48.884;9.192;2022-10-03T19:10:00;12.80;99.90
569;DHT22;269;48.884;9.192;2022-10-03T19:12:32;12.80;99.90
569;DHT22;269;48.884;9.192;2022-10-03T19:15:10;12.60;99.90
569;DHT22;269;48.884;9.192;2022-10-03T19:17:49;12.50;99.90
569;DHT22;269;48.884;9.192;2022-10-03T19:20:22;12.40;99.90
569;DHT22;269;48.884;9.192;2022-10-03T19:22:58;12.30;99.90
569;DHT22;269;48.884;9.192;2022-10-03T19:25:27;12.20;99.90
569;DHT22;269;48.884;9.192;2022-10-03T19:27:58;12.20;99.90
569;DHT22;269;48.884;9.192;2022-10-03T19:30:28;12.20;99.90
569;DHT22;269;48.884;9.192;2022-10-03T19:32:58;12.10;99.90
569;DHT22;269;48.884;9.192;2022-10-03T19:35:29;12.10;99.90
569;DHT22;269;48.884;9.192;2022-10-03T19:38:03;12.10;99.90
569;DHT22;269;48.884;9.192;2022-10-03T19:40:39;12.10;99.90
569;DHT22;269;48.884;9.192;2022-10-03T19:43:30;12.00;99.90
569;DHT22;269;48.884;9.192;2022-10-03T19:46:06;11.90;99.90
569;DHT22;269;48.884;9.192;2022-10-03T19:48:40;11.70;99.90
569;DHT22;269;48.884;9.192;2022-10-03T19:51:14;11.50;99.90
569;DHT22;269;48.884;9.192;2022-10-03T19:53:43;11.30;99.90
569;DHT22;269;48.884;9.192;2022-10-03T19:56:15;11.20;99.90
569;DHT22;269;48.884;9.192;2022-10-03T19:58:44;11.20;99.90
569;DHT22;269;48.884;9.192;2022-10-03T20:01:12;11.10;99.90
569;DHT22;269;48.884;9.192;2022-10-03T20:03:44;11.10;99.90
569;DHT22;269;48.884;9.192;2022-10-03T20:06:18;11.00;99.90
569;DHT22;269;48.884;9.192;2022-10-03T20:08:52;10.90;99.90